createdAt,value
2023-04-30T00:00:01.110Z,0.35833333333333334
2023-04-30T00:01:03.835Z,0.41944444444444445
2023-04-30T00:02:01.406Z,0.675
2023-04-30T00:03:01.205Z,0.23888888888888887
2023-04-30T00:04:02.646Z,0.5166666666666667
2023-04-30T00:05:01.196Z,0
2023-04-30T00:06:07.396Z,0.19722222222222222
2023-04-30T00:07:01.047Z,0.4361111111111111
2023-04-30T00:08:01.098Z,0.19999999999999998
2023-04-30T00:09:01.022Z,0.7138888888888888
2023-04-30T00:10:01.345Z,0.7138888888888888
2023-04-30T00:11:09.071Z,0.17222222222222222
2023-04-30T00:12:01.103Z,0.11944444444444444
2023-04-30T00:13:01.081Z,0.31666666666666665
2023-04-30T00:14:01.030Z,0.23888888888888887
2023-04-30T00:15:01.095Z,0.2777777777777778
2023-04-30T00:16:11.229Z,0
2023-04-30T00:17:02.546Z,0
2023-04-30T00:18:01.143Z,0.2777777777777778
2023-04-30T00:19:01.116Z,0.15833333333333333
2023-04-30T00:20:01.748Z,0
2023-04-30T00:21:14.892Z,0
2023-04-30T00:22:01.739Z,0.675
2023-04-30T00:23:01.061Z,0
2023-04-30T00:24:01.781Z,0
2023-04-30T00:25:01.413Z,0.08055555555555555
2023-04-30T00:26:16.950Z,0
2023-04-30T00:27:01.108Z,0.19999999999999998
2023-04-30T00:28:01.098Z,0.03888888888888889
2023-04-30T00:29:01.089Z,0
2023-04-30T00:30:01.124Z,0
2023-04-30T00:31:01.099Z,0
2023-04-30T00:32:01.431Z,0
2023-04-30T00:33:01.669Z,0
2023-04-30T00:34:00.507Z,0
2023-04-30T00:35:00.140Z,0.08055555555555555
2023-04-30T00:35:59.696Z,0.19999999999999998
2023-04-30T00:37:02.380Z,0
2023-04-30T00:38:02.060Z,0
2023-04-30T00:39:02.610Z,0.03888888888888889
2023-04-30T00:40:01.040Z,0
2023-04-30T00:41:01.058Z,0.35833333333333334
2023-04-30T00:42:01.265Z,0.15833333333333333
2023-04-30T00:43:01.098Z,0.11944444444444444
2023-04-30T00:44:01.027Z,0.11944444444444444
2023-04-30T00:45:01.098Z,0.23888888888888887
2023-04-30T00:46:01.133Z,0.03888888888888889
2023-04-30T00:47:01.182Z,0.03888888888888889
2023-04-30T00:48:01.171Z,0.2777777777777778
2023-04-30T00:49:01.109Z,0
2023-04-30T00:50:01.164Z,0
2023-04-30T00:51:01.511Z,0
2023-04-30T00:52:01.157Z,0.2777777777777778
2023-04-30T00:53:01.162Z,0.2777777777777778
2023-04-30T00:54:01.767Z,0.11944444444444444
2023-04-30T00:55:01.934Z,0.08055555555555555
2023-04-30T00:56:01.844Z,0.23888888888888887
2023-04-30T00:57:01.057Z,0.08055555555555555
2023-04-30T00:58:01.221Z,0.2777777777777778
2023-04-30T00:59:01.404Z,0
2023-04-30T01:00:02.680Z,0
2023-04-30T01:01:01.055Z,0
2023-04-30T01:02:00.684Z,0.3972222222222222
2023-04-30T01:03:00.340Z,0.08055555555555555
2023-04-30T01:04:00.077Z,0
2023-04-30T01:05:00.139Z,0
2023-04-30T01:05:59.926Z,0
2023-04-30T01:06:59.674Z,0
2023-04-30T01:08:02.132Z,0.08055555555555555
2023-04-30T01:09:02.156Z,0
2023-04-30T01:10:02.468Z,0
2023-04-30T01:11:01.165Z,0
2023-04-30T01:12:01.329Z,0.11944444444444444
2023-04-30T01:13:02.964Z,0
2023-04-30T01:14:01.408Z,0
2023-04-30T01:15:01.348Z,0
2023-04-30T01:16:01.376Z,0
2023-04-30T01:17:01.105Z,0
2023-04-30T01:18:01.579Z,0
2023-04-30T01:19:01.146Z,0
2023-04-30T01:20:01.127Z,0.23888888888888887
2023-04-30T01:21:01.859Z,0.08055555555555555
2023-04-30T01:22:01.120Z,0
2023-04-30T01:23:01.317Z,0
2023-04-30T01:24:01.615Z,0.21666666666666667
2023-04-30T01:25:01.356Z,0.11944444444444444
2023-04-30T01:26:01.047Z,0.11944444444444444
2023-04-30T01:27:01.050Z,0.3194444444444444
2023-04-30T01:28:03.781Z,0.2777777777777778
2023-04-30T01:29:01.732Z,0.2111111111111111
2023-04-30T01:30:02.180Z,0.375
2023-04-30T01:31:01.785Z,0.2777777777777778
2023-04-30T01:32:03.116Z,0.12222222222222222
2023-04-30T01:33:02.065Z,0.11944444444444444
2023-04-30T01:34:01.188Z,0.31666666666666665
2023-04-30T01:35:03.059Z,0.11944444444444444
2023-04-30T01:36:01.116Z,0.08055555555555555
2023-04-30T01:37:01.119Z,0.29444444444444445
2023-04-30T01:38:01.112Z,0.23888888888888887
2023-04-30T01:39:01.019Z,0.18611111111111112
2023-04-30T01:40:01.026Z,0.4361111111111111
2023-04-30T01:41:01.045Z,0.11944444444444444
2023-04-30T01:42:01.043Z,0.17222222222222222
2023-04-30T01:43:01.055Z,0.4361111111111111
2023-04-30T01:44:01.011Z,0
2023-04-30T01:45:01.282Z,0.11944444444444444
2023-04-30T01:46:01.454Z,0
2023-04-30T01:47:02.587Z,0
2023-04-30T01:48:01.107Z,0.08055555555555555
2023-04-30T01:49:01.745Z,0
2023-04-30T01:50:01.177Z,0
2023-04-30T01:51:01.297Z,0
2023-04-30T01:52:04.867Z,0
2023-04-30T01:53:02.539Z,0
2023-04-30T01:54:00.863Z,0
2023-04-30T01:55:00.544Z,0.2777777777777778
2023-04-30T01:56:00.212Z,0.31666666666666665
2023-04-30T01:57:07.494Z,0
2023-04-30T01:58:01.016Z,0.19999999999999998
2023-04-30T01:59:01.034Z,0
2023-04-30T02:00:01.063Z,0
2023-04-30T02:01:01.069Z,0.11944444444444444
2023-04-30T02:02:10.582Z,0
2023-04-30T02:03:01.289Z,0
2023-04-30T02:04:02.592Z,0
2023-04-30T02:05:02.689Z,0.07222222222222223
2023-04-30T02:06:01.280Z,0.08055555555555555
2023-04-30T02:07:14.152Z,0.34444444444444444
2023-04-30T02:08:01.107Z,0.2777777777777778
2023-04-30T02:09:01.012Z,0.11388888888888887
2023-04-30T02:10:01.017Z,0
2023-04-30T02:11:01.140Z,0.03888888888888889
2023-04-30T02:12:16.341Z,0.011111111111111112
2023-04-30T02:13:01.422Z,0
2023-04-30T02:14:01.072Z,0.31666666666666665
2023-04-30T02:15:01.033Z,0
2023-04-30T02:16:01.124Z,0
2023-04-30T02:17:01.062Z,0.31666666666666665
2023-04-30T02:18:01.083Z,0.7944444444444444
2023-04-30T02:19:00.829Z,0.3
2023-04-30T02:20:00.899Z,0.11944444444444444
2023-04-30T02:21:01.664Z,0.10833333333333334
2023-04-30T02:22:01.503Z,0.08055555555555555
2023-04-30T02:23:01.098Z,0
2023-04-30T02:24:01.151Z,0.31666666666666665
2023-04-30T02:25:01.127Z,0.31666666666666665
2023-04-30T02:26:01.184Z,0.11944444444444444
2023-04-30T02:27:01.266Z,0.03888888888888889
2023-04-30T02:28:01.169Z,0.31666666666666665
2023-04-30T02:29:02.758Z,0.21944444444444444
2023-04-30T02:30:01.217Z,0.15833333333333333
2023-04-30T02:31:01.030Z,0.23888888888888887
2023-04-30T02:32:01.173Z,0.31666666666666665
2023-04-30T02:33:01.433Z,0.3277777777777778
2023-04-30T02:34:01.094Z,0.19999999999999998
2023-04-30T02:35:01.734Z,0
2023-04-30T02:36:01.759Z,0.23888888888888887
2023-04-30T02:37:04.072Z,0.19999999999999998
2023-04-30T02:38:01.773Z,0.19999999999999998
2023-04-30T02:39:01.794Z,0.6361111111111111
2023-04-30T02:40:01.488Z,0.08055555555555555
2023-04-30T02:41:01.109Z,0
2023-04-30T02:42:01.149Z,0.2777777777777778
2023-04-30T02:43:01.346Z,0
2023-04-30T02:44:01.534Z,0.25833333333333336
2023-04-30T02:45:01.049Z,0.6361111111111111
2023-04-30T02:46:01.088Z,0.15833333333333333
2023-04-30T02:47:01.053Z,0.11944444444444444
2023-04-30T02:48:01.076Z,0.19999999999999998
2023-04-30T02:49:01.052Z,0.19999999999999998
2023-04-30T02:50:01.102Z,0.19999999999999998
2023-04-30T02:51:01.072Z,0.08055555555555555
2023-04-30T02:52:01.107Z,0.31666666666666665
2023-04-30T02:53:01.370Z,0.31666666666666665
2023-04-30T02:54:02.456Z,0.2111111111111111
2023-04-30T02:55:02.010Z,0.03888888888888889
2023-04-30T02:56:01.116Z,0.15833333333333333
2023-04-30T02:57:01.128Z,0.08055555555555555
2023-04-30T02:58:01.094Z,0.23888888888888887
2023-04-30T02:59:01.202Z,0
2023-04-30T03:00:01.234Z,0
2023-04-30T03:01:01.099Z,0
2023-04-30T03:02:00.602Z,0
2023-04-30T03:03:00.451Z,0
2023-04-30T03:04:00.268Z,0
2023-04-30T03:04:59.848Z,0
2023-04-30T03:06:02.117Z,0
2023-04-30T03:07:01.012Z,0
2023-04-30T03:08:01.453Z,0
2023-04-30T03:09:01.884Z,0.07222222222222223
2023-04-30T03:10:01.084Z,0.35833333333333334
2023-04-30T03:11:01.111Z,0.19999999999999998
2023-04-30T03:12:01.138Z,0.15833333333333333
2023-04-30T03:13:01.205Z,0.08611111111111111
2023-04-30T03:14:01.500Z,0
2023-04-30T03:15:02.091Z,0
2023-04-30T03:16:01.229Z,0.11944444444444444
2023-04-30T03:17:00.955Z,0.15833333333333333
2023-04-30T03:18:00.656Z,0.20833333333333331
2023-04-30T03:19:00.337Z,0.18055555555555555
2023-04-30T03:20:00.050Z,0.31666666666666665
2023-04-30T03:20:59.701Z,0.19999999999999998
2023-04-30T03:22:01.725Z,0.4361111111111111
2023-04-30T03:23:01.890Z,0.34444444444444444
2023-04-30T03:24:01.453Z,0.036111111111111115
2023-04-30T03:25:01.068Z,0.19999999999999998
2023-04-30T03:26:01.100Z,0.03888888888888889
2023-04-30T03:27:01.012Z,0.31666666666666665
2023-04-30T03:28:03.720Z,0
2023-04-30T03:29:01.105Z,0
2023-04-30T03:30:01.119Z,0
2023-04-30T03:31:01.056Z,0.15833333333333333
2023-04-30T03:32:00.808Z,0
2023-04-30T03:33:06.156Z,0
2023-04-30T03:34:01.573Z,0.19999999999999998
2023-04-30T03:35:00.938Z,0
2023-04-30T03:36:01.037Z,0
2023-04-30T03:37:00.777Z,0
2023-04-30T03:38:08.281Z,0
2023-04-30T03:39:03.063Z,0
2023-04-30T03:40:01.930Z,0
2023-04-30T03:41:01.488Z,0
2023-04-30T03:42:01.202Z,0
2023-04-30T03:43:12.823Z,0
2023-04-30T03:44:01.116Z,0
2023-04-30T03:45:01.405Z,0
2023-04-30T03:46:01.205Z,0
2023-04-30T03:47:01.120Z,0
2023-04-30T03:48:16.322Z,0
2023-04-30T03:49:02.564Z,0.15833333333333333
2023-04-30T03:50:01.029Z,0.15833333333333333
2023-04-30T03:51:01.031Z,0.15833333333333333
2023-04-30T03:52:01.057Z,0
2023-04-30T03:53:01.053Z,0.23888888888888887
2023-04-30T03:54:00.741Z,0
2023-04-30T03:55:00.519Z,0
2023-04-30T03:56:00.132Z,0.15833333333333333
2023-04-30T03:56:59.734Z,0
2023-04-30T03:58:01.410Z,0.08055555555555555
2023-04-30T03:59:01.328Z,0.7138888888888888
2023-04-30T04:00:01.958Z,0.19722222222222222
2023-04-30T04:01:02.652Z,0.31666666666666665
2023-04-30T04:02:01.213Z,0.15833333333333333
2023-04-30T04:03:01.162Z,0
2023-04-30T04:04:01.163Z,0
2023-04-30T04:05:01.025Z,0
2023-04-30T04:06:01.066Z,0.19999999999999998
2023-04-30T04:07:01.051Z,0
2023-04-30T04:08:01.196Z,0
2023-04-30T04:09:01.074Z,0
2023-04-30T04:10:01.054Z,0.21666666666666667
2023-04-30T04:11:01.022Z,0.2777777777777778
2023-04-30T04:12:01.035Z,0.23888888888888887
2023-04-30T04:13:01.088Z,0
2023-04-30T04:14:01.290Z,0
2023-04-30T04:15:01.130Z,0.19999999999999998
2023-04-30T04:16:01.151Z,0.31666666666666665
2023-04-30T04:17:00.477Z,0.2777777777777778
2023-04-30T04:18:00.200Z,0
2023-04-30T04:18:59.885Z,0.35833333333333334
2023-04-30T04:19:59.467Z,0.47777777777777775
2023-04-30T04:21:01.142Z,0.23888888888888887
2023-04-30T04:22:01.028Z,0.08055555555555555
2023-04-30T04:23:01.047Z,0.11944444444444444
2023-04-30T04:24:01.428Z,0
2023-04-30T04:25:01.256Z,0.03888888888888889
2023-04-30T04:26:01.454Z,0.36944444444444446
2023-04-30T04:27:01.099Z,0.19999999999999998
2023-04-30T04:28:01.388Z,0.11944444444444444
2023-04-30T04:29:01.083Z,0.35833333333333334
2023-04-30T04:30:00.924Z,0.19999999999999998
2023-04-30T04:31:01.118Z,0.31666666666666665
2023-04-30T04:32:01.232Z,0.08055555555555555
2023-04-30T04:33:01.218Z,0
2023-04-30T04:34:00.818Z,0
2023-04-30T04:35:00.539Z,0.2777777777777778
2023-04-30T04:36:00.206Z,0.08055555555555555
2023-04-30T04:36:59.893Z,0.15833333333333333
2023-04-30T04:37:59.603Z,0.08055555555555555
2023-04-30T04:39:01.757Z,0
2023-04-30T04:40:01.230Z,0.19999999999999998
2023-04-30T04:41:01.051Z,0.08055555555555555
2023-04-30T04:42:01.457Z,0.14166666666666666
2023-04-30T04:43:01.175Z,0.35833333333333334
2023-04-30T04:44:01.014Z,0.2777777777777778
2023-04-30T04:45:00.997Z,0.2777777777777778
2023-04-30T04:46:01.142Z,0.4361111111111111
2023-04-30T04:47:01.098Z,0.23888888888888887
2023-04-30T04:48:01.940Z,0.15833333333333333
2023-04-30T04:49:01.968Z,0.25833333333333336
2023-04-30T04:50:02.019Z,0.19999999999999998
2023-04-30T04:51:11.018Z,0.11944444444444444
2023-04-30T04:52:01.524Z,0.31666666666666665
2023-04-30T04:53:01.373Z,0.23888888888888887
2023-04-30T04:54:01.029Z,0.35833333333333334
2023-04-30T04:55:01.101Z,0.23888888888888887
2023-04-30T04:56:01.862Z,0.3972222222222222
2023-04-30T04:57:01.168Z,1.1111111111111112
2023-04-30T04:58:01.622Z,0.6361111111111111
2023-04-30T04:59:02.089Z,0.7555555555555555
2023-04-30T05:00:02.161Z,0.31666666666666665
2023-04-30T05:01:02.147Z,0.2777777777777778
2023-04-30T05:02:01.537Z,0.35833333333333334
2023-04-30T05:03:01.157Z,0.31666666666666665
2023-04-30T05:04:02.875Z,0.24722222222222223
2023-04-30T05:05:02.158Z,0
2023-04-30T05:06:02.369Z,0.2777777777777778
2023-04-30T05:07:01.167Z,0.3972222222222222
2023-04-30T05:08:01.167Z,0.3972222222222222
2023-04-30T05:09:01.292Z,0.34444444444444444
2023-04-30T05:10:01.032Z,0.31666666666666665
2023-04-30T05:11:01.049Z,0
2023-04-30T05:12:01.042Z,0.11944444444444444
2023-04-30T05:13:01.072Z,0.7555555555555555
2023-04-30T05:14:04.440Z,0.39444444444444443
2023-04-30T05:15:01.080Z,0.675
2023-04-30T05:16:01.101Z,0.03888888888888889
2023-04-30T05:17:01.958Z,0.31666666666666665
2023-04-30T05:18:01.017Z,0.5166666666666667
2023-04-30T05:19:07.065Z,0.35555555555555557
2023-04-30T05:20:01.110Z,1.3722222222222222
2023-04-30T05:21:01.819Z,0.4361111111111111
2023-04-30T05:22:01.111Z,1.152777777777778
2023-04-30T05:23:01.292Z,0.7944444444444444
2023-04-30T05:24:10.148Z,0.5527777777777778
2023-04-30T05:25:02.555Z,0.2777777777777778
2023-04-30T05:26:01.424Z,0.7138888888888888
2023-04-30T05:27:02.145Z,0.4111111111111111
2023-04-30T05:28:01.145Z,0.7555555555555555
2023-04-30T05:29:13.215Z,0.5527777777777778
2023-04-30T05:30:02.600Z,0.5555555555555556
2023-04-30T05:31:01.180Z,0.35833333333333334
2023-04-30T05:32:01.104Z,0.875
2023-04-30T05:33:01.438Z,1.0027777777777778
2023-04-30T05:34:01.046Z,0.875
2023-04-30T05:35:01.023Z,0.4361111111111111
2023-04-30T05:36:00.622Z,0.15833333333333333
2023-04-30T05:37:00.625Z,0.675
2023-04-30T05:38:00.286Z,0.3972222222222222
2023-04-30T05:38:59.982Z,0.8333333333333333
2023-04-30T05:39:59.663Z,0.31666666666666665
2023-04-30T05:41:01.417Z,1.2916666666666667
2023-04-30T05:42:01.526Z,1.086111111111111
2023-04-30T05:43:01.215Z,1.152777777777778
2023-04-30T05:44:01.061Z,0.6361111111111111
2023-04-30T05:45:01.068Z,0.2861111111111111
2023-04-30T05:46:01.186Z,0.31666666666666665
2023-04-30T05:47:01.147Z,0.19999999999999998
2023-04-30T05:48:01.107Z,0.2777777777777778
2023-04-30T05:49:01.073Z,0
2023-04-30T05:50:01.389Z,0.11388888888888887
2023-04-30T05:51:01.199Z,0.3972222222222222
2023-04-30T05:52:01.232Z,0.9138888888888889
2023-04-30T05:53:01.311Z,0.4361111111111111
2023-04-30T05:54:02.188Z,0.5166666666666667
2023-04-30T05:55:01.968Z,0.5972222222222222
2023-04-30T05:56:01.128Z,0.4361111111111111
2023-04-30T05:57:01.022Z,0.9944444444444445
2023-04-30T05:58:00.710Z,0.9944444444444445
2023-04-30T05:59:00.559Z,0.15833333333333333
2023-04-30T06:00:00.547Z,0.4361111111111111
2023-04-30T06:01:00.241Z,0.47777777777777775
2023-04-30T06:01:59.846Z,0.3972222222222222
2023-04-30T06:02:59.482Z,0.5166666666666667
2023-04-30T06:04:01.457Z,0.3972222222222222
2023-04-30T06:05:01.598Z,0.5555555555555556
2023-04-30T06:06:01.893Z,0.7138888888888888
2023-04-30T06:07:01.475Z,1.6083333333333334
2023-04-30T06:08:01.137Z,0.4361111111111111
2023-04-30T06:09:01.405Z,0.15833333333333333
2023-04-30T06:10:01.118Z,0.2777777777777778
2023-04-30T06:11:01.187Z,0.2777777777777778
2023-04-30T06:12:01.244Z,0.6361111111111111
2023-04-30T06:13:01.454Z,0.5972222222222222
2023-04-30T06:14:01.027Z,0.675
2023-04-30T06:15:01.382Z,0.11944444444444444
2023-04-30T06:16:02.531Z,0.11388888888888887
2023-04-30T06:17:01.159Z,0.7944444444444444
2023-04-30T06:18:00.996Z,0.675
2023-04-30T06:19:01.089Z,0.5555555555555556
2023-04-30T06:20:01.054Z,0.5555555555555556
2023-04-30T06:21:01.011Z,0.5972222222222222
2023-04-30T06:22:01.017Z,0.5166666666666667
2023-04-30T06:23:01.410Z,0.8333333333333333
2023-04-30T06:24:01.094Z,0.4361111111111111
2023-04-30T06:25:01.490Z,0.32499999999999996
2023-04-30T06:26:01.117Z,0.11944444444444444
2023-04-30T06:27:01.142Z,0.19999999999999998
2023-04-30T06:28:01.849Z,0.11944444444444444
2023-04-30T06:29:01.012Z,0.15833333333333333
2023-04-30T06:30:01.695Z,0.05833333333333333
2023-04-30T06:31:01.236Z,0.15833333333333333
2023-04-30T06:32:01.454Z,0.11944444444444444
2023-04-30T06:33:01.277Z,0.23888888888888887
2023-04-30T06:34:01.921Z,0.15833333333333333
2023-04-30T06:35:01.122Z,0.4666666666666666
2023-04-30T06:36:01.084Z,0.23888888888888887
2023-04-30T06:37:00.705Z,0.2777777777777778
2023-04-30T06:38:00.392Z,0.47777777777777775
2023-04-30T06:39:00.052Z,0.9138888888888889
2023-04-30T06:39:59.684Z,0.4555555555555555
2023-04-30T06:41:01.921Z,0.15833333333333333
2023-04-30T06:42:01.493Z,0.3972222222222222
2023-04-30T06:43:01.275Z,0.19722222222222222
2023-04-30T06:44:01.295Z,0.19999999999999998
2023-04-30T06:45:01.093Z,0.4305555555555556
2023-04-30T06:46:01.213Z,0.47777777777777775
2023-04-30T06:47:01.034Z,0.11944444444444444
2023-04-30T06:48:01.078Z,1.0333333333333334
2023-04-30T06:49:01.044Z,0.5555555555555556
2023-04-30T06:50:01.072Z,0.836111111111111
2023-04-30T06:51:01.428Z,0.2777777777777778
2023-04-30T06:52:01.416Z,0
2023-04-30T06:53:01.229Z,0.5166666666666667
2023-04-30T06:54:01.009Z,0.35833333333333334
2023-04-30T06:55:03.310Z,0.41944444444444445
2023-04-30T06:56:01.115Z,0.5555555555555556
2023-04-30T06:57:01.094Z,0.23888888888888887
2023-04-30T06:58:00.812Z,0.35833333333333334
2023-04-30T06:59:00.402Z,0.08055555555555555
2023-04-30T07:00:06.077Z,0.09722222222222221
2023-04-30T07:01:01.232Z,0.2777777777777778
2023-04-30T07:02:01.262Z,0.19999999999999998
2023-04-30T07:03:01.072Z,0.5972222222222222
2023-04-30T07:04:01.091Z,0.5555555555555556
2023-04-30T07:05:08.377Z,0.18333333333333335
2023-04-30T07:06:01.150Z,1.3111111111111111
2023-04-30T07:07:01.031Z,0.875
2023-04-30T07:08:01.062Z,0.4361111111111111
2023-04-30T07:09:01.057Z,0.11944444444444444
2023-04-30T07:10:11.280Z,0.4805555555555555
2023-04-30T07:11:01.588Z,0.19999999999999998
2023-04-30T07:12:01.406Z,0.5944444444444444
2023-04-30T07:13:01.427Z,0.31666666666666665
2023-04-30T07:14:01.490Z,0.4361111111111111
2023-04-30T07:15:13.527Z,0.1611111111111111
2023-04-30T07:16:01.140Z,0.47777777777777775
2023-04-30T07:17:01.145Z,0.35833333333333334
2023-04-30T07:18:01.371Z,0.23888888888888887
2023-04-30T07:19:01.046Z,0.2777777777777778
2023-04-30T07:20:16.219Z,0.18333333333333335
2023-04-30T07:21:01.417Z,0.1527777777777778
2023-04-30T07:22:01.296Z,0.11944444444444444
2023-04-30T07:23:01.632Z,0.15833333333333333
2023-04-30T07:24:03.888Z,0.6361111111111111
2023-04-30T07:25:01.588Z,0.3972222222222222
2023-04-30T07:26:01.984Z,0.4361111111111111
2023-04-30T07:27:01.024Z,0.31666666666666665
2023-04-30T07:28:01.035Z,0.3972222222222222
2023-04-30T07:29:01.103Z,0.35833333333333334
2023-04-30T07:30:00.805Z,0.15833333333333333
2023-04-30T07:31:01.722Z,0.2722222222222222
2023-04-30T07:32:01.920Z,0.7138888888888888
2023-04-30T07:33:02.499Z,0.5638888888888888
2023-04-30T07:34:01.029Z,0.4361111111111111
2023-04-30T07:35:01.024Z,0.4361111111111111
2023-04-30T07:36:01.046Z,0.11944444444444444
2023-04-30T07:37:01.037Z,0.2777777777777778
2023-04-30T07:38:01.077Z,0.31666666666666665
2023-04-30T07:39:00.770Z,0.35833333333333334
2023-04-30T07:40:00.558Z,0.23888888888888887
2023-04-30T07:41:00.156Z,0.31666666666666665
2023-04-30T07:41:59.830Z,0.23888888888888887
2023-04-30T07:43:01.381Z,0.3972222222222222
2023-04-30T07:44:01.870Z,0.47777777777777775
2023-04-30T07:45:02.017Z,0.5555555555555556
2023-04-30T07:46:01.410Z,0.675
2023-04-30T07:47:02.396Z,0.3972222222222222
2023-04-30T07:48:02.055Z,0.10555555555555556
2023-04-30T07:49:01.025Z,0.08055555555555555
2023-04-30T07:50:00.772Z,0.4361111111111111
2023-04-30T07:51:00.586Z,0.11944444444444444
2023-04-30T07:52:01.620Z,0.2777777777777778
2023-04-30T07:53:01.246Z,0.2777777777777778
2023-04-30T07:54:01.441Z,0.39444444444444443
2023-04-30T07:55:01.172Z,0.15833333333333333
2023-04-30T07:56:01.080Z,0.3972222222222222
2023-04-30T07:57:01.103Z,0.19999999999999998
2023-04-30T07:58:02.105Z,0.11944444444444444
2023-04-30T07:59:00.803Z,0.7555555555555555
2023-04-30T08:00:00.368Z,0.5555555555555556
2023-04-30T08:01:00.066Z,0.4361111111111111
2023-04-30T08:01:59.685Z,0.5166666666666667
2023-04-30T08:03:01.659Z,0.875
2023-04-30T08:04:01.641Z,0.225
2023-04-30T08:05:01.359Z,0.19999999999999998
2023-04-30T08:06:01.825Z,0.5555555555555556
2023-04-30T08:07:01.908Z,0.35833333333333334
2023-04-30T08:08:01.455Z,0.6361111111111111
2023-04-30T08:09:01.020Z,0.2777777777777778
2023-04-30T08:10:01.042Z,0
2023-04-30T08:11:01.645Z,0.425
2023-04-30T08:12:03.019Z,1.0722222222222222
2023-04-30T08:13:01.325Z,1.5888888888888888
2023-04-30T08:14:01.091Z,0.7138888888888888
2023-04-30T08:15:01.083Z,1.35
2023-04-30T08:16:01.392Z,0.7555555555555555
2023-04-30T08:17:01.187Z,0.5555555555555556
2023-04-30T08:18:01.179Z,0.7555555555555555
2023-04-30T08:19:01.483Z,0.675
2023-04-30T08:20:01.182Z,0.9138888888888889
2023-04-30T08:21:01.524Z,1.15
2023-04-30T08:22:02.094Z,0.6694444444444445
2023-04-30T08:23:01.839Z,0.47777777777777775
2023-04-30T08:24:01.199Z,0.7138888888888888
2023-04-30T08:25:01.039Z,0.31666666666666665
2023-04-30T08:26:01.028Z,1.2361111111111112
2023-04-30T08:27:01.064Z,1.3111111111111111
2023-04-30T08:28:01.082Z,0.875
2023-04-30T08:29:01.075Z,0.9138888888888889
2023-04-30T08:30:01.114Z,1.3111111111111111
2023-04-30T08:31:01.491Z,0.33888888888888885
2023-04-30T08:32:01.086Z,1.2722222222222221
2023-04-30T08:33:01.060Z,0.23888888888888887
2023-04-30T08:34:01.121Z,0.47777777777777775
2023-04-30T08:35:01.133Z,0.31666666666666665
2023-04-30T08:36:01.115Z,0.39444444444444443
2023-04-30T08:37:01.072Z,0.47777777777777775
2023-04-30T08:38:01.377Z,1.3916666666666666
2023-04-30T08:39:00.751Z,1.0333333333333334
2023-04-30T08:40:00.790Z,1.5083333333333333
2023-04-30T08:41:01.929Z,1.5611111111111111
2023-04-30T08:42:01.066Z,1.1111111111111112
2023-04-30T08:43:01.099Z,1.1916666666666667
2023-04-30T08:44:01.077Z,1.6694444444444443
2023-04-30T08:45:01.089Z,0.9944444444444445
2023-04-30T08:46:04.232Z,0.5666666666666667
2023-04-30T08:47:01.096Z,0.675
2023-04-30T08:48:01.176Z,1.0722222222222222
2023-04-30T08:49:01.170Z,1.152777777777778
2023-04-30T08:50:01.469Z,0.2777777777777778
2023-04-30T08:51:07.012Z,0.5277777777777778
2023-04-30T08:52:01.334Z,0.31666666666666665
2023-04-30T08:53:01.123Z,0.23888888888888887
2023-04-30T08:54:01.050Z,0.35833333333333334
2023-04-30T08:55:01.144Z,1.7083333333333335
2023-04-30T08:56:09.413Z,0.6388888888888888
2023-04-30T08:57:01.066Z,0.7555555555555555
2023-04-30T08:58:01.052Z,1.9472222222222222
2023-04-30T08:59:01.452Z,0.4361111111111111
2023-04-30T09:00:01.445Z,0.25
2023-04-30T09:01:12.615Z,1.586111111111111
2023-04-30T09:02:02.369Z,0.5972222222222222
2023-04-30T09:03:01.864Z,1.0722222222222222
2023-04-30T09:04:02.208Z,0.9527777777777778
2023-04-30T09:05:01.030Z,1.55
2023-04-30T09:06:14.499Z,0.6027777777777777
2023-04-30T09:07:04.561Z,0.9138888888888889
2023-04-30T09:08:04.184Z,0.3194444444444444
2023-04-30T09:09:01.012Z,1.4305555555555556
2023-04-30T09:10:01.148Z,0.7138888888888888
2023-04-30T09:11:01.033Z,0.875
2023-04-30T09:12:01.015Z,0.47777777777777775
2023-04-30T09:13:01.042Z,0.31666666666666665
2023-04-30T09:14:01.046Z,0.9138888888888889
2023-04-30T09:15:01.064Z,0.19999999999999998
2023-04-30T09:16:01.088Z,1.4694444444444443
2023-04-30T09:17:01.109Z,1.1916666666666667
2023-04-30T09:18:01.125Z,0.6361111111111111
2023-04-30T09:19:01.496Z,1.4305555555555556
2023-04-30T09:20:01.389Z,0.5166666666666667
2023-04-30T09:21:02.159Z,0.6083333333333333
2023-04-30T09:22:01.418Z,0.6361111111111111
2023-04-30T09:23:01.114Z,0.47777777777777775
2023-04-30T09:24:01.126Z,0.23888888888888887
2023-04-30T09:25:01.442Z,1.3916666666666666
2023-04-30T09:26:01.142Z,1.3111111111111111
2023-04-30T09:27:01.457Z,0.9527777777777778
2023-04-30T09:28:01.296Z,1.3916666666666666
2023-04-30T09:29:01.430Z,1.3111111111111111
2023-04-30T09:30:04.512Z,0.5444444444444444
2023-04-30T09:31:01.140Z,0.3972222222222222
2023-04-30T09:32:01.090Z,0.3972222222222222
2023-04-30T09:33:01.071Z,0.7138888888888888
2023-04-30T09:34:01.111Z,0.6361111111111111
2023-04-30T09:35:01.099Z,1.1916666666666667
2023-04-30T09:36:01.095Z,1.2722222222222221
2023-04-30T09:37:01.481Z,0.7833333333333332
2023-04-30T09:38:01.097Z,1.6277777777777778
2023-04-30T09:39:02.614Z,1.3833333333333335
2023-04-30T09:40:01.119Z,1.9055555555555557
2023-04-30T09:41:00.821Z,0.875
2023-04-30T09:42:01.168Z,0.8333333333333333
2023-04-30T09:43:02.060Z,0.2777777777777778
2023-04-30T09:44:01.853Z,1.5888888888888888
2023-04-30T09:45:01.415Z,2.066666666666667
2023-04-30T09:46:01.397Z,1.1916666666666667
2023-04-30T09:47:02.322Z,1.1916666666666667
2023-04-30T09:48:12.746Z,0.875
2023-04-30T09:49:02.096Z,0.875
2023-04-30T09:50:01.772Z,0.2777777777777778
2023-04-30T09:51:01.093Z,1.1111111111111112